West Henrietta, NY

10:19 PM EST on January 26, 2015 (GMT -0500)
Greater Rochester International | Change Station
CLOSE
Current Station
Airport
Location: Rochester,
Elevation: 554 ft
Nearby Weather Stations

Elev 554 ft 43.12 °N, 77.68 °W | Updated 25 minutes ago

Snow
Snow
18 °F
Feels Like 4 °F
N
14
Wind Variable Wind from East

Today
High -- | Low -- °F
--% Chance of Precip.
Yesterday
High -- | Low -- °F
Precip. -- in
7:31 AM 5:15 PM
Waxing Crescent, 49% visible
Pressure 30.00 in
Visibility 2.5 miles
Clouds Overcast 2400 ft
Windchill 4 °F
Dew Point 13 °F
Humidity 81%
Rainfall 0.12 in
Snow Depth Not available.
UV 0 out of 12
Pollen .10 out of 12
Air Quality Not available.
Flu Activity Not available.
METAR KROC 270254Z 08012KT 2 1/2SM -SN OVC024 M08/M11 A2995 RMK AO2 SLP157 P0003 60004 T10781106 58001

More Conditions Fewer Conditions

Pressure 30.00 in
Visibility 2.5 miles
Clouds Overcast 2400 ft
Windchill 4 °F
Dew Point 13 °F
Humidity 81%
Rainfall 0.12 in
Snow Depth Not available.
UV 0 out of 12
Pollen .10 out of 12
Air Quality Not available.
Flu Activity Not available.
METAR KROC 270254Z 08012KT 2 1/2SM -SN OVC024 M08/M11 A2995 RMK AO2 SLP157 P0003 60004 T10781106 58001

More Conditions Fewer Conditions

10-Day Weather Forecast

Almanac

Astronomy

Jan. 26, 2015 Rise Set
Actual Time
Civil Twilight
Nautical Twilight
Astronomical Twilight
Moon
Length of Visible Light
Length of Day
Tomorrow will be .
, % of the Moon is Illuminated

Today's Extremes

State Highs State Lows

Community

WunderPhotos

Upload Photos

1,790,495 photos uploaded!

WunderBlogs® & News

Nearby

Air Quality

  Air Quality AQ Index Pollutant
Not available.

Snow Depth

Station Depth Elevation

Earthquake Activity

City Distance Mag. Time & Date
Minimum magnitude displayed is 2.5.

Coastal Water Temperatures

Place Temperature

Nearby Weather Stations